createdAt,value
2023-03-29T00:00:17.156Z,1.70
2023-03-29T00:03:07.936Z,2.10
2023-03-29T00:05:41.958Z,1.90
2023-03-29T00:08:15.490Z,1.60
2023-03-29T00:10:50.010Z,2.10
2023-03-29T00:13:20.142Z,2.20
2023-03-29T00:15:54.818Z,1.40
2023-03-29T00:18:25.813Z,1.80
2023-03-29T00:21:01.202Z,2.20
2023-03-29T00:23:32.040Z,1.60
2023-03-29T00:26:03.056Z,1.50
2023-03-29T00:28:34.171Z,1.70
2023-03-29T00:31:12.315Z,1.60
2023-03-29T00:33:43.922Z,1.70
2023-03-29T00:36:15.339Z,1.80
2023-03-29T00:38:44.372Z,2.10
2023-03-29T00:41:15.070Z,1.50
2023-03-29T00:44:00.703Z,1.90
2023-03-29T00:46:32.616Z,1.70
2023-03-29T00:49:15.187Z,1.50
2023-03-29T00:51:48.709Z,1.70
2023-03-29T00:54:26.562Z,2.20
2023-03-29T00:56:56.293Z,1.70
2023-03-29T00:59:33.391Z,1.90
2023-03-29T01:02:07.571Z,2.10
2023-03-29T01:04:51.122Z,1.90
2023-03-29T01:07:31.162Z,1.80
2023-03-29T01:10:26.184Z,1.60
2023-03-29T01:13:12.173Z,2.10
2023-03-29T01:15:44.735Z,1.80
2023-03-29T01:18:15.273Z,1.80
2023-03-29T01:21:08.229Z,1.90
2023-03-29T01:23:43.858Z,1.90
2023-03-29T01:26:42.050Z,2.40
2023-03-29T01:29:40.594Z,2.10
2023-03-29T01:32:24.712Z,1.50
2023-03-29T01:35:18.626Z,2.20
2023-03-29T01:38:14.282Z,2.40
2023-03-29T01:40:45.221Z,1.80
2023-03-29T01:43:32.348Z,2.00
2023-03-29T01:46:09.321Z,1.80
2023-03-29T01:49:19.171Z,2.50
2023-03-29T01:52:21.137Z,2.40
2023-03-29T01:54:57.006Z,3.00
2023-03-29T01:57:29.987Z,0.90
2023-03-29T02:00:00.352Z,2.70
2023-03-29T02:02:35.456Z,2.80
2023-03-29T02:05:10.494Z,1.90
2023-03-29T02:07:41.082Z,2.50
2023-03-29T02:10:13.587Z,2.10
2023-03-29T02:12:44.322Z,2.00
2023-03-29T02:15:21.026Z,2.00
2023-03-29T02:17:51.786Z,1.20
2023-03-29T02:20:28.788Z,2.10
2023-03-29T02:23:09.914Z,1.80
2023-03-29T02:25:39.950Z,1.60
2023-03-29T02:28:11.360Z,2.00
2023-03-29T02:31:19.855Z,1.60
2023-03-29T02:33:55.633Z,2.40
2023-03-29T02:36:44.453Z,2.20
2023-03-29T02:39:17.381Z,1.90
2023-03-29T02:41:51.664Z,1.70
2023-03-29T02:44:26.205Z,2.10
2023-03-29T02:47:08.286Z,1.90
2023-03-29T02:49:40.307Z,2.50
2023-03-29T02:52:15.686Z,1.80
2023-03-29T02:54:49.345Z,1.70
2023-03-29T02:57:27.192Z,1.20
2023-03-29T02:59:59.535Z,2.40
2023-03-29T03:02:30.130Z,2.40
2023-03-29T03:05:00.328Z,2.10
2023-03-29T03:07:34.179Z,2.00
2023-03-29T03:10:04.720Z,2.40
2023-03-29T03:12:34.626Z,1.70
2023-03-29T03:15:07.048Z,1.90
2023-03-29T03:17:40.532Z,2.50
2023-03-29T03:20:15.638Z,1.80
2023-03-29T03:22:50.236Z,2.40
2023-03-29T03:25:22.940Z,1.50
2023-03-29T03:27:52.776Z,1.70
2023-03-29T03:30:26.037Z,2.10
2023-03-29T03:33:17.412Z,2.10
2023-03-29T03:35:50.313Z,2.10
2023-03-29T03:38:36.798Z,2.20
2023-03-29T03:41:13.829Z,1.70
2023-03-29T03:43:49.615Z,2.80
2023-03-29T03:46:19.948Z,1.70
2023-03-29T03:49:04.464Z,2.70
2023-03-29T03:51:44.912Z,1.80
2023-03-29T03:54:15.765Z,3.00
2023-03-29T03:57:04.967Z,1.50
2023-03-29T03:59:59.623Z,1.80
2023-03-29T04:02:43.972Z,1.80
2023-03-29T04:05:16.886Z,2.60
2023-03-29T04:07:49.898Z,1.60
2023-03-29T04:10:33.659Z,2.10
2023-03-29T04:13:32.547Z,1.90
2023-03-29T04:16:28.293Z,2.00
2023-03-29T04:18:59.386Z,1.90
2023-03-29T04:21:29.790Z,2.20
2023-03-29T04:23:59.511Z,1.40
2023-03-29T04:26:28.506Z,2.30
2023-03-29T04:29:06.243Z,2.50
2023-03-29T04:31:43.294Z,2.40
2023-03-29T04:35:23.834Z,2.20
2023-03-29T04:37:55.180Z,2.40
2023-03-29T04:40:45.297Z,2.90
2023-03-29T04:43:51.282Z,2.30
2023-03-29T04:46:45.707Z,2.30
2023-03-29T04:49:22.933Z,3.10
2023-03-29T04:51:57.460Z,3.40
2023-03-29T04:54:30.714Z,2.60
2023-03-29T04:57:30.042Z,1.10
2023-03-29T05:00:29.029Z,2.90
2023-03-29T05:03:24.898Z,2.30
2023-03-29T05:06:07.638Z,2.60
2023-03-29T05:08:45.488Z,3.20
2023-03-29T05:11:28.994Z,2.90
2023-03-29T05:17:11.136Z,2.60
2023-03-29T05:19:40.703Z,2.30
2023-03-29T05:22:11.365Z,3.20
2023-03-29T05:24:42.910Z,5.10
2023-03-29T05:27:23.420Z,2.40
2023-03-29T05:30:07.561Z,3.30
2023-03-29T05:33:05.930Z,3.00
2023-03-29T05:35:42.789Z,3.40
2023-03-29T05:38:16.591Z,3.50
2023-03-29T05:40:53.311Z,2.80
2023-03-29T05:43:48.639Z,2.60
2023-03-29T05:46:23.726Z,2.50
2023-03-29T05:48:56.698Z,3.40
2023-03-29T05:51:37.625Z,2.50
2023-03-29T05:54:10.049Z,3.50
2023-03-29T05:56:40.367Z,3.30
2023-03-29T05:59:13.294Z,3.90
2023-03-29T06:01:49.644Z,2.60
2023-03-29T06:04:22.335Z,4.10
2023-03-29T06:07:04.442Z,3.00
2023-03-29T06:09:35.024Z,3.90
2023-03-29T06:12:08.404Z,2.80
2023-03-29T06:14:42.328Z,2.70
2023-03-29T06:17:31.283Z,3.50
2023-03-29T06:20:02.465Z,3.30
2023-03-29T06:22:33.071Z,2.20
2023-03-29T06:25:05.097Z,3.10
2023-03-29T06:27:35.617Z,2.40
2023-03-29T06:30:10.031Z,2.50
2023-03-29T06:32:40.543Z,2.60
2023-03-29T06:35:19.594Z,2.70
2023-03-29T06:37:57.502Z,3.00
2023-03-29T06:40:43.745Z,3.00
2023-03-29T06:43:14.549Z,2.90
2023-03-29T06:45:57.237Z,3.10
2023-03-29T06:51:12.237Z,2.20
2023-03-29T06:53:42.438Z,2.10
2023-03-29T06:56:11.980Z,2.60
2023-03-29T06:58:42.129Z,3.40
2023-03-29T07:01:25.437Z,2.30
2023-03-29T07:04:10.621Z,2.90
2023-03-29T07:07:21.827Z,2.20
2023-03-29T07:09:56.770Z,2.90
2023-03-29T07:13:01.558Z,2.50
2023-03-29T07:15:31.097Z,3.00
2023-03-29T07:18:27.090Z,3.00
2023-03-29T07:20:57.799Z,2.60
2023-03-29T07:23:27.723Z,4.20
2023-03-29T07:25:58.405Z,1.90
2023-03-29T07:28:29.112Z,2.20
2023-03-29T07:31:08.437Z,2.30
2023-03-29T07:33:43.141Z,3.00
2023-03-29T07:36:13.009Z,1.50
2023-03-29T07:38:43.414Z,1.70
2023-03-29T07:41:17.836Z,2.80
2023-03-29T07:43:54.683Z,2.00
2023-03-29T07:46:26.847Z,2.20
2023-03-29T07:48:58.915Z,1.40
2023-03-29T07:51:28.810Z,1.80
2023-03-29T07:54:09.379Z,2.70
2023-03-29T07:56:55.828Z,2.20
2023-03-29T07:59:33.867Z,2.90
2023-03-29T08:02:12.090Z,1.80
2023-03-29T08:04:47.189Z,2.70
2023-03-29T08:07:21.599Z,2.90
2023-03-29T08:10:27.366Z,2.10
2023-03-29T08:13:21.968Z,2.60
2023-03-29T08:16:12.895Z,2.90
2023-03-29T08:18:52.702Z,2.60
2023-03-29T08:21:23.477Z,2.70
2023-03-29T08:24:00.977Z,2.30
2023-03-29T08:26:42.695Z,2.60
2023-03-29T08:29:12.902Z,2.20
2023-03-29T08:31:43.412Z,1.70
2023-03-29T08:34:12.838Z,2.70
2023-03-29T08:36:53.623Z,2.60
2023-03-29T08:39:29.675Z,2.90
2023-03-29T08:42:50.034Z,2.20
2023-03-29T08:45:37.625Z,2.20
2023-03-29T08:48:23.125Z,2.70
2023-03-29T08:51:00.661Z,2.50
2023-03-29T08:53:44.713Z,2.70
2023-03-29T08:56:34.326Z,2.20
2023-03-29T08:59:23.417Z,2.80
2023-03-29T09:01:59.259Z,2.00
2023-03-29T09:04:38.267Z,2.80
2023-03-29T09:07:17.328Z,2.90
2023-03-29T09:09:51.463Z,2.40
2023-03-29T09:12:38.718Z,2.40
2023-03-29T09:15:31.401Z,2.00
2023-03-29T09:18:14.689Z,2.20
2023-03-29T09:21:26.727Z,2.10
2023-03-29T09:24:12.123Z,2.00
2023-03-29T09:27:31.992Z,2.20
2023-03-29T09:30:19.817Z,2.10
2023-03-29T09:33:05.129Z,1.90
2023-03-29T09:36:15.882Z,2.20
2023-03-29T09:38:54.812Z,2.40
2023-03-29T09:41:53.384Z,2.40
2023-03-29T09:44:36.866Z,2.30
2023-03-29T09:47:35.792Z,2.60
2023-03-29T09:50:39.119Z,2.70
2023-03-29T09:53:11.296Z,2.90
2023-03-29T09:55:50.726Z,2.40
2023-03-29T09:58:34.872Z,1.90
2023-03-29T10:01:09.780Z,2.10
2023-03-29T10:03:40.558Z,2.50
2023-03-29T10:06:16.953Z,1.80
2023-03-29T10:08:59.460Z,2.00
2023-03-29T10:11:39.894Z,2.50
2023-03-29T10:14:22.170Z,2.10
2023-03-29T10:16:57.246Z,2.10
2023-03-29T10:19:35.086Z,1.90
2023-03-29T10:22:16.899Z,1.80
2023-03-29T10:24:55.141Z,2.20
2023-03-29T10:27:31.399Z,2.50
2023-03-29T10:30:09.958Z,2.00
2023-03-29T10:32:41.718Z,2.70
2023-03-29T10:35:29.685Z,1.90
2023-03-29T10:38:03.933Z,1.80
2023-03-29T10:40:43.448Z,2.20
2023-03-29T10:43:26.724Z,2.30
2023-03-29T10:46:08.897Z,2.20
2023-03-29T10:49:11.508Z,1.90
2023-03-29T10:51:46.453Z,2.40
2023-03-29T10:54:22.322Z,1.60
2023-03-29T10:56:58.878Z,1.50
2023-03-29T11:00:09.818Z,2.70
2023-03-29T11:03:02.132Z,2.10
2023-03-29T11:06:01.829Z,1.50
2023-03-29T11:09:12.536Z,1.90
2023-03-29T11:12:04.423Z,1.60
2023-03-29T11:15:20.759Z,1.60
2023-03-29T11:18:23.843Z,2.10
2023-03-29T11:21:12.134Z,1.30
2023-03-29T11:24:25.423Z,1.60
2023-03-29T11:27:52.164Z,0.80
2023-03-29T11:30:47.849Z,1.40
2023-03-29T11:33:25.337Z,1.40
2023-03-29T11:36:11.409Z,1.40
2023-03-29T11:38:50.053Z,1.40
2023-03-29T11:41:25.989Z,1.70
2023-03-29T11:44:18.283Z,1.40
2023-03-29T11:47:05.644Z,1.50
2023-03-29T11:49:38.365Z,1.70
2023-03-29T11:52:19.221Z,1.70
2023-03-29T11:55:03.994Z,1.60
2023-03-29T11:58:04.223Z,1.50
2023-03-29T12:00:42.695Z,1.40
2023-03-29T12:03:21.355Z,2.10
2023-03-29T12:06:05.547Z,1.90
2023-03-29T12:09:12.129Z,2.10
2023-03-29T12:12:01.036Z,1.90
2023-03-29T12:15:00.414Z,1.80
2023-03-29T12:17:47.718Z,1.20
2023-03-29T12:20:27.551Z,1.40
2023-03-29T12:23:01.835Z,1.40
2023-03-29T12:25:59.022Z,1.10
2023-03-29T12:28:33.695Z,1.60
2023-03-29T12:31:10.059Z,0.90
2023-03-29T12:34:02.607Z,1.10
2023-03-29T12:37:04.463Z,1.60
2023-03-29T12:40:18.442Z,1.90
2023-03-29T12:43:10.309Z,1.10
2023-03-29T12:45:50.479Z,2.30
2023-03-29T12:51:46.267Z,2.00
2023-03-29T12:54:21.468Z,1.90
2023-03-29T12:57:20.546Z,2.10
2023-03-29T13:08:22.520Z,2.10
2023-03-29T13:10:57.499Z,2.10
2023-03-29T13:13:41.997Z,2.40
2023-03-29T13:16:21.168Z,2.40
2023-03-29T13:19:11.524Z,2.50
2023-03-29T13:22:03.750Z,3.10
2023-03-29T13:37:06.874Z,1.80
2023-03-29T13:40:48.899Z,2.20
2023-03-29T13:44:14.891Z,2.00
2023-03-29T13:46:48.104Z,1.90
2023-03-29T13:49:22.657Z,2.40
2023-03-29T13:52:05.885Z,2.60
2023-03-29T13:54:51.076Z,2.10
2023-03-29T14:00:40.422Z,2.50
2023-03-29T14:03:15.889Z,2.40
2023-03-29T14:05:54.092Z,2.30
2023-03-29T14:08:40.697Z,2.70
2023-03-29T14:11:24.246Z,2.50
2023-03-29T14:13:56.666Z,2.40
2023-03-29T14:19:06.001Z,2.20
2023-03-29T14:24:40.158Z,2.90
2023-03-29T14:27:13.384Z,3.10
2023-03-29T14:29:49.564Z,2.60
2023-03-29T14:32:31.945Z,2.00
2023-03-29T14:35:01.676Z,1.90
2023-03-29T14:37:33.224Z,2.30
2023-03-29T14:40:02.718Z,2.50
2023-03-29T14:42:33.328Z,2.50
2023-03-29T14:45:07.294Z,2.40
2023-03-29T14:47:41.056Z,2.50
2023-03-29T14:50:51.335Z,2.80
2023-03-29T14:53:26.763Z,3.30
2023-03-29T14:56:03.611Z,2.10
2023-03-29T14:58:36.657Z,2.60
2023-03-29T15:01:19.882Z,2.20
2023-03-29T15:04:09.526Z,2.20
2023-03-29T15:06:42.073Z,2.40
2023-03-29T15:09:38.734Z,1.70
2023-03-29T15:12:16.758Z,1.90
2023-03-29T15:15:17.473Z,2.30
2023-03-29T15:18:17.089Z,1.90
2023-03-29T15:20:47.119Z,2.30
2023-03-29T15:23:17.420Z,2.20
2023-03-29T15:25:53.436Z,2.80
2023-03-29T15:28:35.144Z,2.90
2023-03-29T15:31:29.386Z,3.10
2023-03-29T15:34:09.478Z,2.10
2023-03-29T15:36:48.410Z,2.60
2023-03-29T15:39:20.824Z,2.60
2023-03-29T15:41:54.536Z,2.30
2023-03-29T15:44:31.578Z,2.50
2023-03-29T15:47:01.128Z,2.70
2023-03-29T15:49:30.410Z,3.40
2023-03-29T15:52:00.149Z,2.90
2023-03-29T15:54:34.036Z,2.80
2023-03-29T15:57:12.231Z,2.40
2023-03-29T15:59:52.361Z,2.50
2023-03-29T16:02:25.571Z,2.70
2023-03-29T16:04:55.700Z,2.90
2023-03-29T16:07:26.260Z,3.50
2023-03-29T16:09:59.153Z,3.30
2023-03-29T16:12:31.371Z,2.70
2023-03-29T16:15:01.483Z,3.00
2023-03-29T16:17:31.392Z,3.10
2023-03-29T16:20:01.781Z,3.00
2023-03-29T16:22:32.615Z,2.60
2023-03-29T16:25:06.074Z,3.30
2023-03-29T16:27:35.431Z,2.70
2023-03-29T16:30:06.493Z,3.60
2023-03-29T16:32:39.531Z,3.10
2023-03-29T16:35:18.508Z,3.10
2023-03-29T16:37:48.700Z,3.70
2023-03-29T16:40:17.942Z,3.00
2023-03-29T16:42:48.450Z,2.00
2023-03-29T16:45:20.434Z,3.20
2023-03-29T16:47:49.581Z,3.10
2023-03-29T16:50:22.367Z,3.50
2023-03-29T16:52:54.556Z,3.40
2023-03-29T16:55:25.201Z,4.10
2023-03-29T16:57:56.182Z,3.40
2023-03-29T17:00:33.837Z,3.00
2023-03-29T17:03:05.990Z,3.10
2023-03-29T17:05:41.845Z,2.80
2023-03-29T17:08:13.648Z,3.20
2023-03-29T17:10:45.504Z,3.20
2023-03-29T17:13:18.276Z,3.50
2023-03-29T17:15:52.926Z,3.90
2023-03-29T17:18:28.832Z,3.10
2023-03-29T17:21:05.054Z,3.40
2023-03-29T17:23:37.812Z,3.30
2023-03-29T17:26:14.611Z,3.50
2023-03-29T17:28:45.927Z,3.50
2023-03-29T17:31:17.608Z,3.60
2023-03-29T17:33:48.000Z,3.40
2023-03-29T17:36:17.120Z,3.50
2023-03-29T17:38:51.361Z,3.10
2023-03-29T17:44:25.620Z,3.40
2023-03-29T17:46:55.759Z,4.00
2023-03-29T17:49:25.003Z,3.70
2023-03-29T17:51:58.267Z,3.60
2023-03-29T17:54:29.767Z,4.30
2023-03-29T17:56:59.836Z,4.30
2023-03-29T17:59:31.230Z,4.30
2023-03-29T18:02:03.236Z,4.00
2023-03-29T18:04:35.970Z,4.70
2023-03-29T18:07:05.523Z,4.20
2023-03-29T18:09:35.968Z,4.60
2023-03-29T18:12:08.858Z,4.80
2023-03-29T18:14:38.785Z,4.70
2023-03-29T18:17:09.184Z,4.70
2023-03-29T18:19:41.570Z,4.20
2023-03-29T18:22:11.192Z,7.70
2023-03-29T18:24:41.925Z,8.80
2023-03-29T18:27:13.084Z,6.60
2023-03-29T18:29:44.913Z,5.40
2023-03-29T18:32:18.253Z,5.30
2023-03-29T18:34:48.592Z,6.00
2023-03-29T18:37:18.963Z,6.60
2023-03-29T18:39:52.311Z,6.50
2023-03-29T18:42:25.632Z,6.60
2023-03-29T18:44:55.182Z,6.10
2023-03-29T18:47:27.454Z,6.40
2023-03-29T18:52:28.593Z,5.60
2023-03-29T18:54:57.796Z,6.60
2023-03-29T18:57:29.323Z,6.30
2023-03-29T19:00:01.549Z,7.50
2023-03-29T19:02:34.498Z,8.00
2023-03-29T19:05:09.697Z,7.20
2023-03-29T19:07:40.489Z,6.40
2023-03-29T19:10:11.393Z,6.30
2023-03-29T19:12:41.257Z,7.60
2023-03-29T19:15:14.331Z,8.10
2023-03-29T19:17:44.330Z,8.10
2023-03-29T19:20:19.497Z,8.40
2023-03-29T19:22:52.357Z,7.20
2023-03-29T19:25:23.049Z,8.10
2023-03-29T19:31:17.888Z,7.10
2023-03-29T19:33:47.799Z,8.00
2023-03-29T19:36:17.564Z,9.00
2023-03-29T19:38:50.166Z,7.10
2023-03-29T19:41:23.772Z,7.70
2023-03-29T19:43:54.314Z,6.80
2023-03-29T19:46:28.269Z,6.80
2023-03-29T19:49:05.082Z,7.20
2023-03-29T19:51:39.102Z,7.20
2023-03-29T19:54:13.320Z,8.50
2023-03-29T19:56:43.422Z,8.40
2023-03-29T19:59:18.188Z,8.40
2023-03-29T20:01:51.357Z,7.90
2023-03-29T20:04:25.944Z,7.40
2023-03-29T20:06:58.321Z,8.30
2023-03-29T20:09:27.612Z,7.20
2023-03-29T20:11:57.800Z,7.40
2023-03-29T20:14:28.137Z,8.00
2023-03-29T20:16:57.880Z,7.50
2023-03-29T20:19:27.822Z,7.60
2023-03-29T20:21:59.340Z,6.50
2023-03-29T20:24:29.286Z,8.10
2023-03-29T20:26:59.200Z,8.70
2023-03-29T20:29:29.711Z,7.20
2023-03-29T20:31:59.585Z,7.10
2023-03-29T20:34:28.844Z,8.10
2023-03-29T20:37:01.300Z,7.40
2023-03-29T20:39:32.003Z,6.30
2023-03-29T20:42:02.639Z,5.30
2023-03-29T20:44:35.253Z,6.60
2023-03-29T20:49:37.762Z,5.40
2023-03-29T20:52:16.254Z,6.20
2023-03-29T20:54:46.895Z,7.40
2023-03-29T20:57:20.200Z,6.10
2023-03-29T20:59:50.582Z,6.30
2023-03-29T21:02:23.164Z,7.00
2023-03-29T21:04:53.808Z,6.60
2023-03-29T21:07:27.074Z,5.40
2023-03-29T21:09:57.375Z,6.60
2023-03-29T21:12:28.090Z,6.90
2023-03-29T21:14:57.254Z,6.70
2023-03-29T21:17:27.744Z,7.40
2023-03-29T21:19:57.246Z,6.70
2023-03-29T21:22:26.369Z,7.50
2023-03-29T21:24:56.784Z,9.00
2023-03-29T21:27:26.781Z,7.80
2023-03-29T21:29:56.391Z,7.60
2023-03-29T21:32:27.630Z,8.20
2023-03-29T21:34:56.879Z,7.50
2023-03-29T21:37:27.155Z,8.30
2023-03-29T21:39:57.472Z,9.30
2023-03-29T21:42:27.030Z,8.50
2023-03-29T21:44:56.545Z,8.10
2023-03-29T21:47:25.910Z,8.70
2023-03-29T21:49:56.543Z,8.70
2023-03-29T21:52:26.371Z,7.90
2023-03-29T21:54:56.641Z,9.00
2023-03-29T21:57:26.280Z,8.40
2023-03-29T21:59:57.105Z,7.80
2023-03-29T22:02:27.696Z,7.90
2023-03-29T22:04:57.017Z,8.90
2023-03-29T22:07:26.857Z,8.90
2023-03-29T22:09:59.110Z,8.20
2023-03-29T22:12:29.343Z,8.80
2023-03-29T22:15:06.657Z,8.60
2023-03-29T22:17:36.603Z,7.80
2023-03-29T22:20:15.444Z,9.70
2023-03-29T22:22:51.001Z,8.40
2023-03-29T22:25:21.884Z,8.30
2023-03-29T22:27:51.304Z,8.30
2023-03-29T22:30:21.783Z,8.10
2023-03-29T22:32:52.300Z,6.90
2023-03-29T22:35:22.214Z,8.00
2023-03-29T22:37:51.487Z,7.60
2023-03-29T22:40:21.177Z,7.40
2023-03-29T22:42:50.391Z,7.10
2023-03-29T22:45:21.793Z,8.10
2023-03-29T22:47:51.295Z,8.20
2023-03-29T22:50:21.289Z,7.70
2023-03-29T22:52:52.006Z,6.40
2023-03-29T22:55:22.602Z,7.70
2023-03-29T22:57:52.480Z,8.00
2023-03-29T23:00:23.116Z,7.50
2023-03-29T23:02:53.230Z,7.60
2023-03-29T23:05:23.190Z,7.80
2023-03-29T23:07:53.214Z,8.10
2023-03-29T23:10:22.912Z,8.30
2023-03-29T23:12:52.187Z,6.80
2023-03-29T23:15:28.385Z,8.00
2023-03-29T23:17:59.581Z,6.20
2023-03-29T23:20:30.874Z,7.70
2023-03-29T23:23:01.126Z,7.20
2023-03-29T23:25:30.428Z,7.30
2023-03-29T23:28:01.171Z,8.20
2023-03-29T23:30:32.387Z,7.90
2023-03-29T23:33:02.766Z,6.70
2023-03-29T23:35:32.803Z,9.30
2023-03-29T23:38:02.532Z,13.50
2023-03-29T23:40:33.591Z,12.30
2023-03-29T23:43:04.772Z,9.20
2023-03-29T23:45:37.191Z,6.70
2023-03-29T23:48:08.140Z,8.00
2023-03-29T23:50:37.648Z,6.40
2023-03-29T23:53:07.717Z,7.40
2023-03-29T23:55:38.734Z,7.30
2023-03-29T23:58:09.486Z,7.20
